createdAt,value
2018-03-17T00:00:08.508Z,0
2018-03-17T00:01:18.505Z,0
2018-03-17T00:02:27.960Z,0
2018-03-17T00:03:37.660Z,0
2018-03-17T00:04:47.613Z,0
2018-03-17T00:05:57.562Z,0
2018-03-17T00:07:07.550Z,0
2018-03-17T00:08:17.540Z,0
2018-03-17T00:09:27.496Z,0
2018-03-17T00:10:37.458Z,0
2018-03-17T00:11:47.412Z,0
2018-03-17T00:12:57.372Z,0
2018-03-17T00:14:07.343Z,0
2018-03-17T00:15:17.307Z,0
2018-03-17T00:16:27.263Z,0
2018-03-17T00:17:36.974Z,0
2018-03-17T00:18:46.415Z,0
2018-03-17T00:19:55.876Z,0
2018-03-17T00:21:05.831Z,0
2018-03-17T00:22:15.848Z,0
2018-03-17T00:23:25.540Z,0
2018-03-17T00:24:35.231Z,0
2018-03-17T00:25:44.409Z,0
2018-03-17T00:26:53.840Z,0
2018-03-17T00:28:03.284Z,0
2018-03-17T00:29:13.006Z,0
2018-03-17T00:30:22.707Z,0
2018-03-17T00:31:32.140Z,0
2018-03-17T00:32:42.339Z,0
2018-03-17T00:33:52.063Z,0
2018-03-17T00:35:02.017Z,0
2018-03-17T00:36:11.713Z,0
2018-03-17T00:37:21.413Z,0
2018-03-17T00:38:31.393Z,0
2018-03-17T00:39:41.361Z,0
2018-03-17T00:40:50.566Z,0
2018-03-17T00:42:00.525Z,0
2018-03-17T00:43:10.223Z,0
2018-03-17T00:44:20.188Z,0
2018-03-17T00:45:29.893Z,0
2018-03-17T00:46:39.842Z,0
2018-03-17T00:47:49.606Z,0
2018-03-17T00:48:59.291Z,0
2018-03-17T00:50:09.254Z,0
2018-03-17T00:51:18.686Z,0
2018-03-17T00:52:28.426Z,0
2018-03-17T00:53:38.431Z,0
2018-03-17T00:54:48.404Z,0
2018-03-17T00:55:57.852Z,0
2018-03-17T00:57:07.817Z,0
2018-03-17T00:58:17.260Z,0
2018-03-17T00:59:27.222Z,0
2018-03-17T01:00:37.180Z,0
2018-03-17T01:01:46.879Z,0
2018-03-17T01:02:56.581Z,0
2018-03-17T01:04:06.021Z,0
2018-03-17T01:05:15.972Z,0
2018-03-17T01:06:25.416Z,0
2018-03-17T01:07:35.114Z,0
2018-03-17T01:08:44.830Z,0
2018-03-17T01:09:54.789Z,0
2018-03-17T01:11:04.219Z,0
2018-03-17T01:12:13.669Z,0
2018-03-17T01:13:23.102Z,0
2018-03-17T01:14:33.047Z,0
2018-03-17T01:15:42.734Z,0
2018-03-17T01:16:52.694Z,0
2018-03-17T01:18:02.643Z,0
2018-03-17T01:19:12.343Z,0
2018-03-17T01:20:22.048Z,0
2018-03-17T01:21:31.736Z,0
2018-03-17T01:22:41.170Z,0
2018-03-17T01:23:51.130Z,0
2018-03-17T01:25:00.828Z,0
2018-03-17T01:26:10.530Z,0
2018-03-17T01:27:19.714Z,0
2018-03-17T01:28:28.890Z,0
2018-03-17T01:29:38.583Z,0
2018-03-17T01:30:48.285Z,0
2018-03-17T01:31:58.252Z,0
2018-03-17T01:33:07.941Z,0
2018-03-17T01:34:17.643Z,0
2018-03-17T01:35:27.598Z,0
2018-03-17T01:36:37.287Z,0
2018-03-17T01:37:47.232Z,0
2018-03-17T01:38:57.197Z,0
2018-03-17T01:40:06.374Z,0
2018-03-17T01:41:16.070Z,0
2018-03-17T01:42:25.764Z,0
2018-03-17T01:43:35.457Z,0
2018-03-17T01:44:45.148Z,0
2018-03-17T01:45:54.830Z,0
2018-03-17T01:47:04.801Z,0
2018-03-17T01:48:14.744Z,0
2018-03-17T01:49:24.508Z,0
2018-03-17T01:50:34.466Z,0
2018-03-17T01:51:44.433Z,0
2018-03-17T01:52:54.119Z,0
2018-03-17T01:54:04.080Z,0
2018-03-17T01:55:13.770Z,0
2018-03-17T01:56:23.732Z,0
2018-03-17T01:57:33.678Z,0
2018-03-17T01:58:43.637Z,0
2018-03-17T01:59:53.330Z,0
2018-03-17T02:01:03.293Z,0
2018-03-17T02:02:13.004Z,0
2018-03-17T02:03:22.961Z,0
2018-03-17T02:04:32.131Z,0
2018-03-17T02:05:42.081Z,0
2018-03-17T02:06:52.029Z,0
2018-03-17T02:08:01.979Z,0
2018-03-17T02:09:11.945Z,0
2018-03-17T02:10:21.893Z,0
2018-03-17T02:11:31.846Z,0
2018-03-17T02:12:41.794Z,0
2018-03-17T02:13:51.747Z,0
2018-03-17T02:15:01.698Z,0
2018-03-17T02:16:11.397Z,0
2018-03-17T02:17:21.650Z,0
2018-03-17T02:18:31.607Z,0
2018-03-17T02:19:41.299Z,0
2018-03-17T02:20:50.739Z,0
2018-03-17T02:22:00.434Z,0
2018-03-17T02:23:09.857Z,0
2018-03-17T02:24:19.821Z,0
2018-03-17T02:25:29.580Z,0
2018-03-17T02:26:39.291Z,0
2018-03-17T02:27:48.977Z,0
2018-03-17T02:28:58.924Z,0
2018-03-17T02:30:08.895Z,0
2018-03-17T02:31:18.075Z,0
2018-03-17T02:32:27.793Z,0
2018-03-17T02:33:37.761Z,0
2018-03-17T02:34:47.815Z,0
2018-03-17T02:35:57.522Z,0
2018-03-17T02:37:07.223Z,0
2018-03-17T02:38:17.201Z,0
2018-03-17T02:39:26.899Z,0
2018-03-17T02:40:36.859Z,0
2018-03-17T02:41:46.823Z,0
2018-03-17T02:42:56.518Z,0
2018-03-17T02:44:06.475Z,0
2018-03-17T02:45:16.446Z,0
2018-03-17T02:46:26.418Z,0
2018-03-17T02:47:36.381Z,0
2018-03-17T02:48:46.344Z,0
2018-03-17T02:49:56.298Z,0
2018-03-17T02:51:06.002Z,0
2018-03-17T02:52:15.981Z,0
2018-03-17T02:53:25.685Z,0
2018-03-17T02:54:35.668Z,0
2018-03-17T02:55:45.362Z,0
2018-03-17T02:56:55.318Z,0
2018-03-17T02:58:05.020Z,0
2018-03-17T02:59:14.716Z,0
2018-03-17T03:00:24.747Z,0
2018-03-17T03:01:34.723Z,0
2018-03-17T03:02:44.689Z,0
2018-03-17T03:03:54.688Z,0
2018-03-17T03:05:04.651Z,0
2018-03-17T03:06:14.614Z,0
2018-03-17T03:07:24.576Z,0
2018-03-17T03:08:34.547Z,0
2018-03-17T03:09:44.244Z,0
2018-03-17T03:10:53.929Z,0
2018-03-17T03:12:03.634Z,0
2018-03-17T03:13:13.062Z,0
2018-03-17T03:14:23.033Z,0
2018-03-17T03:15:33.238Z,0
2018-03-17T03:16:43.207Z,0
2018-03-17T03:17:52.895Z,0
2018-03-17T03:19:02.845Z,0
2018-03-17T03:20:12.816Z,0
2018-03-17T03:21:23.013Z,0
2018-03-17T03:22:32.967Z,0
2018-03-17T03:23:42.931Z,0
2018-03-17T03:24:52.880Z,0
2018-03-17T03:26:02.847Z,0
2018-03-17T03:27:12.608Z,0
2018-03-17T03:28:22.552Z,0
2018-03-17T03:29:32.504Z,0
2018-03-17T03:30:41.679Z,0
2018-03-17T03:31:51.660Z,0
2018-03-17T03:33:01.346Z,0
2018-03-17T03:34:11.295Z,0
2018-03-17T03:35:21.049Z,0
2018-03-17T03:36:31.003Z,0
2018-03-17T03:37:40.689Z,0
2018-03-17T03:38:50.373Z,0
2018-03-17T03:40:00.339Z,0
2018-03-17T03:41:10.065Z,0
2018-03-17T03:42:20.021Z,0
2018-03-17T03:43:29.970Z,0
2018-03-17T03:44:39.909Z,0
2018-03-17T03:45:49.606Z,0
2018-03-17T03:46:59.580Z,0
2018-03-17T03:48:09.268Z,0
2018-03-17T03:49:18.964Z,0
2018-03-17T03:50:28.664Z,0
2018-03-17T03:51:38.613Z,0
2018-03-17T03:52:48.321Z,0
2018-03-17T03:53:58.022Z,0
2018-03-17T03:55:07.977Z,0
2018-03-17T03:56:18.180Z,0
2018-03-17T03:57:27.859Z,0
2018-03-17T03:58:37.804Z,0
2018-03-17T03:59:47.501Z,0
2018-03-17T04:00:57.445Z,0
2018-03-17T04:02:07.179Z,0
2018-03-17T04:03:16.609Z,0
2018-03-17T04:04:26.357Z,0
2018-03-17T04:05:36.364Z,0
2018-03-17T04:06:46.325Z,0
2018-03-17T04:07:56.269Z,0
2018-03-17T04:09:05.704Z,0
2018-03-17T04:10:15.394Z,0
2018-03-17T04:11:25.087Z,0
2018-03-17T04:12:34.789Z,0
2018-03-17T04:13:44.732Z,0
2018-03-17T04:14:54.679Z,0
2018-03-17T04:16:04.367Z,0
2018-03-17T04:17:14.316Z,0
2018-03-17T04:18:24.284Z,0
2018-03-17T04:19:34.241Z,0
2018-03-17T04:20:44.193Z,0
2018-03-17T04:21:54.138Z,0
2018-03-17T04:23:03.844Z,0
2018-03-17T04:24:13.553Z,0
2018-03-17T04:25:22.999Z,0
2018-03-17T04:26:32.952Z,0
2018-03-17T04:27:42.951Z,0
2018-03-17T04:28:52.646Z,0
2018-03-17T04:30:02.342Z,0
2018-03-17T04:31:12.025Z,0
2018-03-17T04:32:21.717Z,0
2018-03-17T04:33:31.423Z,0
2018-03-17T04:34:41.391Z,0
2018-03-17T04:35:51.345Z,0
2018-03-17T04:37:00.523Z,0
2018-03-17T04:38:10.217Z,0
2018-03-17T04:39:19.905Z,0
2018-03-17T04:40:29.595Z,0
2018-03-17T04:41:39.546Z,0
2018-03-17T04:42:49.504Z,0
2018-03-17T04:43:59.193Z,0
2018-03-17T04:45:09.138Z,0
2018-03-17T04:46:19.104Z,0
2018-03-17T04:47:29.198Z,0
2018-03-17T04:48:38.645Z,0
2018-03-17T04:49:48.344Z,0
2018-03-17T04:50:58.031Z,0
2018-03-17T04:52:07.980Z,0
2018-03-17T04:53:17.661Z,0
2018-03-17T04:54:27.347Z,0
2018-03-17T04:55:37.048Z,0
2018-03-17T04:56:47.007Z,0
2018-03-17T04:57:56.709Z,0
2018-03-17T04:59:06.408Z,0
2018-03-17T05:00:16.099Z,0
2018-03-17T05:01:25.886Z,0
2018-03-17T05:02:35.326Z,0
2018-03-17T05:03:44.775Z,0
2018-03-17T05:04:53.666Z,0
2018-03-17T05:06:03.357Z,0
2018-03-17T05:07:13.042Z,0
2018-03-17T05:08:22.730Z,0
2018-03-17T05:09:32.160Z,0
2018-03-17T05:10:42.138Z,5
2018-03-17T05:11:51.831Z,5
2018-03-17T05:13:01.778Z,5
2018-03-17T05:14:11.725Z,5
2018-03-17T05:15:21.235Z,5
2018-03-17T05:16:30.920Z,5
2018-03-17T05:17:40.607Z,10
2018-03-17T05:18:50.298Z,10
2018-03-17T05:20:00.249Z,10
2018-03-17T05:21:09.951Z,10
2018-03-17T05:22:19.636Z,15
2018-03-17T05:23:29.074Z,15
2018-03-17T05:24:38.515Z,15
2018-03-17T05:25:47.689Z,20
2018-03-17T05:26:57.377Z,20
2018-03-17T05:28:07.323Z,20
2018-03-17T05:29:17.025Z,25
2018-03-17T05:30:26.712Z,25
2018-03-17T05:31:36.405Z,25
2018-03-17T05:32:46.103Z,30
2018-03-17T05:33:55.810Z,30
2018-03-17T05:35:05.506Z,35
2018-03-17T05:36:15.453Z,35
2018-03-17T05:37:25.140Z,40
2018-03-17T05:38:35.093Z,45
2018-03-17T05:39:44.524Z,45
2018-03-17T05:40:54.490Z,50
2018-03-17T05:42:04.445Z,55
2018-03-17T05:43:13.884Z,55
2018-03-17T05:44:23.864Z,60
2018-03-17T05:45:33.818Z,60
2018-03-17T05:46:43.780Z,65
2018-03-17T05:47:53.465Z,70
2018-03-17T05:49:03.174Z,70
2018-03-17T05:50:12.608Z,75
2018-03-17T05:51:22.302Z,80
2018-03-17T05:52:31.762Z,85
2018-03-17T05:53:41.726Z,90
2018-03-17T05:54:51.682Z,95
2018-03-17T05:56:01.644Z,100
2018-03-17T05:57:11.608Z,100
2018-03-17T05:58:21.290Z,105
2018-03-17T05:59:30.987Z,110
2018-03-17T06:00:40.172Z,115
2018-03-17T06:01:49.870Z,120
2018-03-17T06:02:59.295Z,125
2018-03-17T06:04:09.000Z,130
2018-03-17T06:05:18.979Z,135
2018-03-17T06:06:28.937Z,140
2018-03-17T06:07:38.373Z,145
2018-03-17T06:08:48.069Z,145
2018-03-17T06:09:57.514Z,150
2018-03-17T06:11:07.201Z,155
2018-03-17T06:12:17.145Z,155
2018-03-17T06:13:26.844Z,160
2018-03-17T06:14:36.865Z,160
2018-03-17T06:15:46.803Z,160
2018-03-17T06:16:56.760Z,160
2018-03-17T06:18:06.465Z,160
2018-03-17T06:19:16.422Z,160
2018-03-17T06:20:26.125Z,165
2018-03-17T06:21:35.829Z,165
2018-03-17T06:22:45.791Z,170
2018-03-17T06:23:54.961Z,175
2018-03-17T06:25:04.652Z,180
2018-03-17T06:26:14.608Z,185
2018-03-17T06:27:24.301Z,190
2018-03-17T06:28:33.998Z,195
2018-03-17T06:29:43.685Z,195
2018-03-17T06:30:53.292Z,200
2018-03-17T06:32:03.240Z,205
2018-03-17T06:33:13.443Z,205
2018-03-17T06:34:22.894Z,210
2018-03-17T06:35:32.848Z,210
2018-03-17T06:36:42.545Z,215
2018-03-17T06:37:52.236Z,220
2018-03-17T06:39:01.933Z,225
2018-03-17T06:40:11.875Z,230
2018-03-17T06:41:21.637Z,230
2018-03-17T06:42:30.805Z,235
2018-03-17T06:43:40.239Z,245
2018-03-17T06:44:49.944Z,245
2018-03-17T06:45:59.901Z,250
2018-03-17T06:47:09.346Z,250
2018-03-17T06:48:19.300Z,260
2018-03-17T06:49:28.999Z,265
2018-03-17T06:50:38.708Z,260
2018-03-17T06:51:48.154Z,260
2018-03-17T06:52:57.863Z,260
2018-03-17T06:54:07.553Z,270
2018-03-17T06:55:17.695Z,275
2018-03-17T06:56:27.647Z,270
2018-03-17T06:57:37.346Z,270
2018-03-17T06:58:46.532Z,275
2018-03-17T06:59:56.495Z,270
2018-03-17T07:01:06.196Z,265
2018-03-17T07:02:16.158Z,265
2018-03-17T07:03:25.863Z,260
2018-03-17T07:04:35.297Z,260
2018-03-17T07:05:45.242Z,270
2018-03-17T07:06:54.446Z,270
2018-03-17T07:08:03.884Z,270
2018-03-17T07:09:13.840Z,270
2018-03-17T07:10:23.282Z,280
2018-03-17T07:11:32.969Z,290
2018-03-17T07:12:42.921Z,295
2018-03-17T07:13:52.870Z,300
2018-03-17T07:15:02.305Z,305
2018-03-17T07:16:12.005Z,310
2018-03-17T07:17:21.967Z,320
2018-03-17T07:18:31.671Z,330
2018-03-17T07:19:40.582Z,345
2018-03-17T07:20:50.544Z,350
2018-03-17T07:22:00.236Z,350
2018-03-17T07:23:09.922Z,345
2018-03-17T07:24:19.111Z,345
2018-03-17T07:25:28.797Z,340
2018-03-17T07:26:38.229Z,335
2018-03-17T07:27:47.700Z,340
2018-03-17T07:28:57.665Z,350
2018-03-17T07:30:07.154Z,355
2018-03-17T07:31:17.100Z,370
2018-03-17T07:32:26.806Z,380
2018-03-17T07:33:36.771Z,390
2018-03-17T07:34:46.479Z,400
2018-03-17T07:35:55.951Z,400
2018-03-17T07:37:05.646Z,415
2018-03-17T07:38:15.341Z,425
2018-03-17T07:39:24.781Z,430
2018-03-17T07:40:33.967Z,435
2018-03-17T07:41:43.927Z,445
2018-03-17T07:42:53.884Z,455
2018-03-17T07:44:03.574Z,460
2018-03-17T07:45:13.022Z,455
2018-03-17T07:46:22.504Z,450
2018-03-17T07:47:31.953Z,440
2018-03-17T07:48:41.898Z,440
2018-03-17T07:49:51.330Z,440
2018-03-17T07:51:01.044Z,445
2018-03-17T07:52:10.475Z,455
2018-03-17T07:53:20.167Z,465
2018-03-17T07:54:30.164Z,470
2018-03-17T07:55:40.132Z,470
2018-03-17T07:56:49.572Z,465
2018-03-17T07:57:59.289Z,475
2018-03-17T07:59:09.237Z,480
2018-03-17T08:00:18.935Z,480
2018-03-17T08:01:28.655Z,470
2018-03-17T08:02:38.348Z,460
2018-03-17T08:03:48.049Z,460
2018-03-17T08:04:57.498Z,475
2018-03-17T08:06:07.464Z,490
2018-03-17T08:07:17.173Z,505
2018-03-17T08:08:26.361Z,515
2018-03-17T08:09:36.044Z,530
2018-03-17T08:10:45.508Z,535
2018-03-17T08:11:55.457Z,515
2018-03-17T08:13:05.165Z,520
2018-03-17T08:14:14.874Z,520
2018-03-17T08:15:24.830Z,525
2018-03-17T08:16:34.535Z,525
2018-03-17T08:17:44.233Z,520
2018-03-17T08:18:54.202Z,555
2018-03-17T08:20:04.171Z,555
2018-03-17T08:21:14.132Z,625
2018-03-17T08:22:24.131Z,650
2018-03-17T08:23:34.113Z,685
2018-03-17T08:24:44.115Z,645
2018-03-17T08:25:54.089Z,740
2018-03-17T08:27:03.521Z,705
2018-03-17T08:28:13.488Z,655
2018-03-17T08:29:23.451Z,655
2018-03-17T08:30:33.150Z,645
2018-03-17T08:31:43.112Z,625
2018-03-17T08:32:52.596Z,620
2018-03-17T08:34:02.033Z,635
2018-03-17T08:35:11.730Z,630
2018-03-17T08:36:21.437Z,625
2018-03-17T08:37:31.470Z,635
2018-03-17T08:38:41.189Z,620
2018-03-17T08:39:50.887Z,635
2018-03-17T08:41:00.336Z,665
2018-03-17T08:42:10.044Z,685
2018-03-17T08:43:19.750Z,680
2018-03-17T08:44:29.716Z,690
2018-03-17T08:45:39.165Z,675
2018-03-17T08:46:48.859Z,685
2018-03-17T08:47:58.567Z,700
2018-03-17T08:49:07.742Z,710
2018-03-17T08:50:17.716Z,700
2018-03-17T08:51:27.432Z,695
2018-03-17T08:52:37.392Z,700
2018-03-17T08:53:47.350Z,680
2018-03-17T08:54:57.322Z,660
2018-03-17T08:56:07.066Z,655
2018-03-17T08:57:16.769Z,660
2018-03-17T08:58:26.472Z,655
2018-03-17T08:59:35.917Z,685
2018-03-17T09:00:45.609Z,715
2018-03-17T09:01:55.310Z,750
2018-03-17T09:03:05.018Z,780
2018-03-17T09:04:14.987Z,795
2018-03-17T09:05:24.693Z,805
2018-03-17T09:06:34.666Z,805
2018-03-17T09:07:44.369Z,805
2018-03-17T09:08:54.349Z,805
2018-03-17T09:10:04.073Z,805
2018-03-17T09:11:14.048Z,800
2018-03-17T09:12:24.006Z,810
2018-03-17T09:13:33.984Z,850
2018-03-17T09:14:43.712Z,890
2018-03-17T09:15:53.171Z,960
2018-03-17T09:17:03.152Z,985
2018-03-17T09:18:13.233Z,1005
2018-03-17T09:19:23.191Z,1080
2018-03-17T09:20:32.898Z,1105
2018-03-17T09:21:43.114Z,1070
2018-03-17T09:22:53.082Z,1060
2018-03-17T09:24:03.046Z,1060
2018-03-17T09:25:13.002Z,1105
2018-03-17T09:26:22.982Z,1130
2018-03-17T09:27:32.948Z,1165
2018-03-17T09:28:42.648Z,1360
2018-03-17T09:29:52.352Z,1380
2018-03-17T09:31:02.066Z,1310
2018-03-17T09:32:11.769Z,1005
2018-03-17T09:33:21.208Z,935
2018-03-17T09:34:30.674Z,900
2018-03-17T09:35:40.642Z,880
2018-03-17T09:36:50.422Z,855
2018-03-17T09:38:00.400Z,845
2018-03-17T09:39:09.857Z,845
2018-03-17T09:40:19.583Z,840
2018-03-17T09:41:29.296Z,850
2018-03-17T09:42:39.254Z,855
2018-03-17T09:43:48.954Z,855
2018-03-17T09:44:58.931Z,855
2018-03-17T09:46:08.625Z,855
2018-03-17T09:47:18.318Z,870
2018-03-17T09:48:28.288Z,900
2018-03-17T09:49:38.056Z,900
2018-03-17T09:50:47.500Z,885
2018-03-17T09:51:57.191Z,860
2018-03-17T09:53:06.900Z,845
2018-03-17T09:54:16.596Z,820
2018-03-17T09:55:26.289Z,810
2018-03-17T09:56:36.245Z,805
2018-03-17T09:57:46.206Z,810
2018-03-17T09:58:55.920Z,825
2018-03-17T10:00:05.562Z,825
2018-03-17T10:01:15.280Z,845
2018-03-17T10:02:25.240Z,860
2018-03-17T10:03:35.203Z,870
2018-03-17T10:04:44.652Z,895
2018-03-17T10:05:54.097Z,920
2018-03-17T10:07:04.070Z,945
2018-03-17T10:08:13.768Z,975
2018-03-17T10:09:23.744Z,1025
2018-03-17T10:10:33.728Z,1040
2018-03-17T10:11:43.415Z,1095
2018-03-17T10:12:53.221Z,1235
2018-03-17T10:14:03.209Z,1290
2018-03-17T10:15:12.941Z,1305
2018-03-17T10:16:22.413Z,1390
2018-03-17T10:17:32.140Z,1395
2018-03-17T10:18:41.610Z,1310
2018-03-17T10:19:51.052Z,1195
2018-03-17T10:21:00.764Z,1170
2018-03-17T10:22:10.737Z,1280
2018-03-17T10:23:20.472Z,1500
2018-03-17T10:24:30.175Z,1340
2018-03-17T10:25:40.143Z,1250
2018-03-17T10:26:50.128Z,1315
2018-03-17T10:28:00.096Z,1530
2018-03-17T10:29:09.539Z,1560
2018-03-17T10:30:19.526Z,1655
2018-03-17T10:31:28.977Z,1900
2018-03-17T10:32:38.684Z,1720
2018-03-17T10:33:48.415Z,1320
2018-03-17T10:34:58.381Z,1400
2018-03-17T10:36:07.711Z,1335
2018-03-17T10:37:17.421Z,1245
2018-03-17T10:38:26.600Z,1110
2018-03-17T10:39:36.323Z,1115
2018-03-17T10:40:46.289Z,1170
2018-03-17T10:41:55.750Z,1045
2018-03-17T10:43:05.209Z,1115
2018-03-17T10:44:14.925Z,1245
2018-03-17T10:45:24.897Z,1390
2018-03-17T10:46:34.880Z,1610
2018-03-17T10:47:44.893Z,1265
2018-03-17T10:48:54.921Z,1320
2018-03-17T10:50:04.897Z,1400
2018-03-17T10:51:14.343Z,1545
2018-03-17T10:52:24.335Z,1530
2018-03-17T10:53:33.799Z,1435
2018-03-17T10:54:43.538Z,1320
2018-03-17T10:55:53.256Z,1230
2018-03-17T10:57:03.219Z,1180
2018-03-17T10:58:13.188Z,1325
2018-03-17T10:59:22.910Z,1295
2018-03-17T11:00:32.675Z,1225
2018-03-17T11:01:42.651Z,1190
2018-03-17T11:02:51.845Z,1195
2018-03-17T11:04:01.554Z,1135
2018-03-17T11:05:11.001Z,1115
2018-03-17T11:06:21.229Z,1195
2018-03-17T11:07:31.183Z,1185
2018-03-17T11:08:40.645Z,1325
2018-03-17T11:09:50.366Z,1235
2018-03-17T11:10:59.555Z,1225
2018-03-17T11:12:09.512Z,1120
2018-03-17T11:13:18.972Z,1185
2018-03-17T11:14:28.676Z,1530
2018-03-17T11:15:38.635Z,1490
2018-03-17T11:16:48.083Z,1720
2018-03-17T11:17:57.794Z,1540
2018-03-17T11:19:07.504Z,1440
2018-03-17T11:20:17.019Z,1345
2018-03-17T11:21:27.030Z,1325
2018-03-17T11:22:36.989Z,1300
2018-03-17T11:23:46.696Z,1190
2018-03-17T11:24:56.416Z,1120
2018-03-17T11:26:06.119Z,1100
2018-03-17T11:27:16.087Z,1040
2018-03-17T11:28:26.164Z,1030
2018-03-17T11:29:35.891Z,1035
2018-03-17T11:30:45.853Z,1015
2018-03-17T11:31:55.818Z,965
2018-03-17T11:33:05.773Z,1020
2018-03-17T11:34:15.736Z,1025
2018-03-17T11:35:25.175Z,1030
2018-03-17T11:36:35.142Z,1025
2018-03-17T11:37:44.861Z,1100
2018-03-17T11:38:54.075Z,1200
2018-03-17T11:40:04.045Z,1265
2018-03-17T11:41:13.750Z,1340
2018-03-17T11:42:23.205Z,1395
2018-03-17T11:43:32.920Z,1350
2018-03-17T11:44:42.628Z,1295
2018-03-17T11:45:52.648Z,1225
2018-03-17T11:47:02.366Z,1245
2018-03-17T11:48:12.141Z,1430
2018-03-17T11:49:21.852Z,1500
2018-03-17T11:50:31.047Z,1800
2018-03-17T11:51:41.024Z,1510
2018-03-17T11:52:50.732Z,1715
2018-03-17T11:54:00.695Z,1675
2018-03-17T11:55:10.161Z,1590
2018-03-17T11:56:19.875Z,1505
2018-03-17T11:57:29.581Z,1460
2018-03-17T11:58:39.548Z,1650
2018-03-17T11:59:49.251Z,1710
2018-03-17T12:00:59.218Z,1460
2018-03-17T12:02:08.921Z,1495
2018-03-17T12:03:18.913Z,1630
2018-03-17T12:04:28.874Z,1585
2018-03-17T12:05:38.838Z,1605
2018-03-17T12:06:48.554Z,1675
2018-03-17T12:07:58.519Z,1630
2018-03-17T12:09:08.488Z,1605
2018-03-17T12:10:18.269Z,1495
2018-03-17T12:11:28.233Z,1500
2018-03-17T12:12:37.951Z,1500
2018-03-17T12:13:47.924Z,1525
2018-03-17T12:14:57.909Z,1550
2018-03-17T12:16:07.624Z,1585
2018-03-17T12:17:17.074Z,1485
2018-03-17T12:18:26.538Z,1430
2018-03-17T12:19:36.510Z,1520
2018-03-17T12:20:45.960Z,1555
2018-03-17T12:21:55.940Z,1565
2018-03-17T12:23:05.638Z,1580
2018-03-17T12:24:15.352Z,1730
2018-03-17T12:25:25.335Z,1700
2018-03-17T12:26:35.316Z,1815
2018-03-17T12:27:45.548Z,2210
2018-03-17T12:28:55.018Z,1920
2018-03-17T12:30:04.751Z,2165
2018-03-17T12:31:14.719Z,2105
2018-03-17T12:32:24.456Z,2020
2018-03-17T12:33:34.178Z,1880
2018-03-17T12:34:43.912Z,1655
2018-03-17T12:35:53.617Z,1760
2018-03-17T12:37:03.329Z,2710
2018-03-17T12:38:13.305Z,2645
2018-03-17T12:39:22.483Z,2435
2018-03-17T12:40:32.668Z,2555
2018-03-17T12:41:42.394Z,2740
2018-03-17T12:42:52.369Z,2800
2018-03-17T12:44:02.064Z,2265
2018-03-17T12:45:11.796Z,2665
2018-03-17T12:46:21.839Z,2320
2018-03-17T12:47:31.565Z,2365
2018-03-17T12:48:41.019Z,2680
2018-03-17T12:49:50.724Z,2575
2018-03-17T12:51:00.690Z,2830
2018-03-17T12:52:10.418Z,2895
2018-03-17T12:53:20.137Z,3010
2018-03-17T12:54:29.842Z,3040
2018-03-17T12:55:39.804Z,3055
2018-03-17T12:56:49.784Z,3240
2018-03-17T12:57:59.761Z,2940
2018-03-17T12:59:09.746Z,3020
2018-03-17T13:00:19.203Z,2330
2018-03-17T13:01:28.928Z,2890
2018-03-17T13:02:38.637Z,2855
2018-03-17T13:03:48.811Z,2970
2018-03-17T13:04:58.523Z,3010
2018-03-17T13:06:08.239Z,3060
2018-03-17T13:07:18.245Z,3010
2018-03-17T13:08:28.231Z,2920
2018-03-17T13:09:37.419Z,2765
2018-03-17T13:10:47.133Z,2770
2018-03-17T13:11:56.325Z,2980
2018-03-17T13:13:06.292Z,2985
2018-03-17T13:14:16.266Z,2900
2018-03-17T13:15:26.243Z,3030
2018-03-17T13:16:36.209Z,2195
2018-03-17T13:17:45.944Z,3005
2018-03-17T13:18:55.947Z,2990
2018-03-17T13:20:05.140Z,2650
2018-03-17T13:21:14.892Z,2940
2018-03-17T13:22:24.610Z,3030
2018-03-17T13:23:34.321Z,3000
2018-03-17T13:24:44.031Z,3080
2018-03-17T13:25:53.753Z,3085
2018-03-17T13:27:03.464Z,3115
2018-03-17T13:28:13.181Z,3015
2018-03-17T13:29:22.897Z,3105
2018-03-17T13:30:32.870Z,3150
2018-03-17T13:31:42.871Z,2155
2018-03-17T13:32:52.904Z,2190
2018-03-17T13:34:02.905Z,1990
2018-03-17T13:35:12.104Z,3065
2018-03-17T13:36:21.817Z,3055
2018-03-17T13:37:31.820Z,3100
2018-03-17T13:38:41.800Z,3050
2018-03-17T13:39:51.776Z,3025
2018-03-17T13:41:01.750Z,2910
2018-03-17T13:42:11.723Z,2980
2018-03-17T13:43:21.714Z,1990
2018-03-17T13:44:31.191Z,1225
2018-03-17T13:45:41.172Z,2660
2018-03-17T13:46:50.898Z,3115
2018-03-17T13:48:00.616Z,3095
2018-03-17T13:49:10.086Z,3165
2018-03-17T13:50:20.054Z,3005
2018-03-17T13:51:29.777Z,2975
2018-03-17T13:52:39.486Z,2895
2018-03-17T13:53:48.929Z,3045
2018-03-17T13:54:58.127Z,3000
2018-03-17T13:56:07.845Z,2850
2018-03-17T13:57:17.554Z,2945
2018-03-17T13:58:27.262Z,2900
2018-03-17T13:59:36.966Z,2885
2018-03-17T14:00:46.942Z,1350
2018-03-17T14:01:56.665Z,1495
2018-03-17T14:03:06.377Z,2105
2018-03-17T14:04:16.084Z,1760
2018-03-17T14:05:25.801Z,2110
2018-03-17T14:06:35.520Z,2895
2018-03-17T14:07:45.226Z,2805
2018-03-17T14:08:55.207Z,1445
2018-03-17T14:10:04.666Z,1845
2018-03-17T14:11:14.400Z,2420
2018-03-17T14:12:24.380Z,2640
2018-03-17T14:13:34.095Z,2700
2018-03-17T14:14:43.318Z,2435
2018-03-17T14:15:53.332Z,1285
2018-03-17T14:17:03.331Z,980
2018-03-17T14:18:13.043Z,1025
2018-03-17T14:19:23.022Z,1350
2018-03-17T14:20:32.732Z,1120
2018-03-17T14:21:42.512Z,1195
2018-03-17T14:22:51.961Z,1575
2018-03-17T14:24:01.186Z,1055
2018-03-17T14:25:10.929Z,985
2018-03-17T14:26:20.651Z,910
2018-03-17T14:27:30.093Z,985
2018-03-17T14:28:39.295Z,1315
2018-03-17T14:29:49.252Z,1025
2018-03-17T14:30:58.965Z,940
2018-03-17T14:32:08.667Z,770
2018-03-17T14:33:18.647Z,710
2018-03-17T14:34:28.611Z,765
2018-03-17T14:35:38.580Z,1220
2018-03-17T14:36:48.594Z,1945
2018-03-17T14:37:58.576Z,1270
2018-03-17T14:39:08.285Z,920
2018-03-17T14:40:18.000Z,1460
2018-03-17T14:41:27.989Z,1350
2018-03-17T14:42:37.698Z,935
2018-03-17T14:43:47.692Z,795
2018-03-17T14:44:57.414Z,790
2018-03-17T14:46:07.139Z,730
2018-03-17T14:47:17.106Z,790
2018-03-17T14:48:26.807Z,885
2018-03-17T14:49:36.537Z,830
2018-03-17T14:50:45.990Z,675
2018-03-17T14:51:55.720Z,665
2018-03-17T14:53:05.691Z,615
2018-03-17T14:54:15.137Z,615
2018-03-17T14:55:24.854Z,775
2018-03-17T14:56:34.836Z,1295
2018-03-17T14:57:44.286Z,1595
2018-03-17T14:58:54.282Z,1140
2018-03-17T15:00:03.727Z,1675
2018-03-17T15:01:13.692Z,1705
2018-03-17T15:02:23.411Z,1610
2018-03-17T15:03:33.382Z,1535
2018-03-17T15:04:43.103Z,1650
2018-03-17T15:05:53.076Z,1385
2018-03-17T15:07:02.803Z,1000
2018-03-17T15:08:12.261Z,1470
2018-03-17T15:09:22.323Z,1115
2018-03-17T15:10:32.043Z,650
2018-03-17T15:11:41.771Z,665
2018-03-17T15:12:51.245Z,1110
2018-03-17T15:14:01.218Z,710
2018-03-17T15:15:10.915Z,1285
2018-03-17T15:16:20.629Z,710
2018-03-17T15:17:30.350Z,1475
2018-03-17T15:18:39.279Z,1500
2018-03-17T15:19:49.246Z,1385
2018-03-17T15:20:59.217Z,1265
2018-03-17T15:22:09.214Z,1450
2018-03-17T15:23:18.905Z,1445
2018-03-17T15:24:28.615Z,1350
2018-03-17T15:25:38.582Z,1045
2018-03-17T15:26:48.330Z,1385
2018-03-17T15:27:58.034Z,1390
2018-03-17T15:29:08.019Z,1265
2018-03-17T15:30:17.990Z,565
2018-03-17T15:31:27.952Z,520
2018-03-17T15:32:37.933Z,480
2018-03-17T15:33:47.695Z,655
2018-03-17T15:34:57.420Z,445
2018-03-17T15:36:07.154Z,485
2018-03-17T15:37:16.622Z,625
2018-03-17T15:38:26.068Z,1070
2018-03-17T15:39:36.045Z,440
2018-03-17T15:40:45.521Z,455
2018-03-17T15:41:55.230Z,475
2018-03-17T15:43:04.947Z,1030
2018-03-17T15:44:14.392Z,1010
2018-03-17T15:45:24.351Z,455
2018-03-17T15:46:34.393Z,440
2018-03-17T15:47:44.098Z,930
2018-03-17T15:48:53.805Z,885
2018-03-17T15:50:03.772Z,450
2018-03-17T15:51:13.733Z,425
2018-03-17T15:52:23.184Z,410
2018-03-17T15:53:32.904Z,845
2018-03-17T15:54:42.878Z,1000
2018-03-17T15:55:52.827Z,980
2018-03-17T15:57:02.800Z,910
2018-03-17T15:58:12.775Z,775
2018-03-17T15:59:22.753Z,940
2018-03-17T16:00:32.454Z,900
2018-03-17T16:01:41.898Z,855
2018-03-17T16:02:51.602Z,820
2018-03-17T16:04:01.577Z,785
2018-03-17T16:05:11.308Z,800
2018-03-17T16:06:20.765Z,725
2018-03-17T16:07:30.290Z,725
2018-03-17T16:08:40.267Z,720
2018-03-17T16:09:50.241Z,740
2018-03-17T16:10:59.688Z,710
2018-03-17T16:12:09.145Z,675